createdAt,value
2023-03-02T00:02:02.315Z,98816.94
2023-03-02T00:04:39.889Z,98813.50
2023-03-02T00:07:13.559Z,98814.44
2023-03-02T00:09:43.204Z,98812.00
2023-03-02T00:12:11.987Z,98817.13
2023-03-02T00:14:39.557Z,98810.25
2023-03-02T00:17:08.113Z,98818.84
2023-03-02T00:19:36.574Z,98813.88
2023-03-02T00:22:05.137Z,98802.72
2023-03-02T00:24:32.862Z,98805.34
2023-03-02T00:27:00.161Z,98807.84
2023-03-02T00:29:27.844Z,98800.09
2023-03-02T00:31:55.338Z,98804.38
2023-03-02T00:34:23.039Z,98808.63
2023-03-02T00:36:50.451Z,98811.19
2023-03-02T00:39:20.280Z,98810.28
2023-03-02T00:41:48.916Z,98806.88
2023-03-02T00:44:19.769Z,98805.16
2023-03-02T00:46:47.131Z,98804.31
2023-03-02T00:49:14.827Z,98800.91
2023-03-02T00:51:42.138Z,98797.41
2023-03-02T00:54:10.165Z,98795.75
2023-03-02T00:56:37.561Z,98783.81
2023-03-02T00:59:11.199Z,98782.13
2023-03-02T01:01:38.552Z,98788.22
2023-03-02T01:04:06.255Z,98784.94
2023-03-02T01:06:33.911Z,98774.75
2023-03-02T01:09:01.706Z,98775.66
2023-03-02T01:11:29.081Z,98774.03
2023-03-02T01:13:56.675Z,98771.47
2023-03-02T01:16:23.979Z,98769.81
2023-03-02T01:18:51.679Z,98769.88
2023-03-02T01:21:19.040Z,98774.16
2023-03-02T01:23:46.569Z,98771.56
2023-03-02T01:26:14.007Z,98771.59
2023-03-02T01:28:41.656Z,98768.09
2023-03-02T01:31:09.031Z,98758.81
2023-03-02T01:33:37.195Z,98758.78
2023-03-02T01:36:05.055Z,98756.34
2023-03-02T01:38:32.898Z,98752.94
2023-03-02T01:41:00.229Z,98753.03
2023-03-02T01:43:29.503Z,98741.97
2023-03-02T01:46:20.316Z,98738.81
2023-03-02T01:49:01.156Z,98748.44
2023-03-02T01:51:38.320Z,98740.75
2023-03-02T01:54:17.380Z,98735.66
2023-03-02T01:56:46.773Z,98734.88
2023-03-02T01:59:20.403Z,98733.28
2023-03-02T02:01:55.648Z,98724.72
2023-03-02T02:04:27.304Z,98715.31
2023-03-02T02:07:08.240Z,98722.94
2023-03-02T02:09:49.967Z,98715.31
2023-03-02T02:12:22.346Z,98711.03
2023-03-02T02:14:50.696Z,98709.44
2023-03-02T02:17:19.705Z,98707.13
2023-03-02T02:20:28.777Z,98713.31
2023-03-02T02:23:22.380Z,98703.25
2023-03-02T02:25:53.246Z,98715.41
2023-03-02T02:28:37.548Z,98707.94
2023-03-02T02:31:26.941Z,98710.66
2023-03-02T02:34:04.036Z,98710.56
2023-03-02T02:36:38.962Z,98701.84
2023-03-02T02:39:11.716Z,98702.56
2023-03-02T02:41:42.006Z,98699.88
2023-03-02T02:44:17.618Z,98705.78
2023-03-02T02:46:46.027Z,98704.00
2023-03-02T02:49:19.097Z,98711.72
2023-03-02T02:51:46.708Z,98703.19
2023-03-02T02:54:19.750Z,98707.41
2023-03-02T02:56:50.268Z,98703.13
2023-03-02T02:59:25.252Z,98701.56
2023-03-02T03:01:53.132Z,98694.59
2023-03-02T03:04:30.128Z,98693.59
2023-03-02T03:07:03.040Z,98687.72
2023-03-02T03:09:31.816Z,98685.63
2023-03-02T03:12:25.393Z,98685.00
2023-03-02T03:14:54.481Z,98678.97
2023-03-02T03:17:22.171Z,98685.00
2023-03-02T03:19:49.875Z,98678.06
2023-03-02T03:22:18.012Z,98677.25
2023-03-02T03:24:46.672Z,98676.38
2023-03-02T03:27:16.693Z,98673.78
2023-03-02T03:29:50.344Z,98673.72
2023-03-02T03:32:19.054Z,98674.53
2023-03-02T03:34:47.122Z,98671.06
2023-03-02T03:37:18.780Z,98667.66
2023-03-02T03:39:46.668Z,98669.41
2023-03-02T03:42:14.292Z,98667.66
2023-03-02T03:44:41.686Z,98674.50
2023-03-02T03:47:09.415Z,98677.88
2023-03-02T03:49:37.017Z,98668.41
2023-03-02T03:52:05.080Z,98672.63
2023-03-02T03:54:32.421Z,98670.03
2023-03-02T03:57:00.111Z,98669.97
2023-03-02T03:59:28.546Z,98670.75
2023-03-02T04:02:00.358Z,98666.47
2023-03-02T04:04:34.730Z,98665.56
2023-03-02T04:07:02.580Z,98670.66
2023-03-02T04:09:32.333Z,98669.78
2023-03-02T04:12:00.200Z,98666.34
2023-03-02T04:14:27.405Z,98664.72
2023-03-02T04:16:55.077Z,98658.78
2023-03-02T04:19:22.842Z,98658.78
2023-03-02T04:21:54.616Z,98659.75
2023-03-02T04:24:24.405Z,98667.50
2023-03-02T04:26:52.328Z,98664.34
2023-03-02T04:29:20.158Z,98661.81
2023-03-02T04:31:48.643Z,98663.94
2023-03-02T04:34:16.144Z,98658.09
2023-03-02T04:36:44.580Z,98666.56
2023-03-02T04:39:16.058Z,98665.59
2023-03-02T04:41:45.060Z,98673.19
2023-03-02T04:44:13.203Z,98652.63
2023-03-02T04:46:44.219Z,98652.56
2023-03-02T04:49:13.009Z,98647.41
2023-03-02T04:51:45.561Z,98650.00
2023-03-02T04:54:24.844Z,98649.94
2023-03-02T04:56:53.686Z,98643.88
2023-03-02T04:59:27.887Z,98653.22
2023-03-02T05:01:59.936Z,98647.16
2023-03-02T05:04:28.859Z,98657.44
2023-03-02T05:06:57.752Z,98660.81
2023-03-02T05:09:30.978Z,98664.19
2023-03-02T05:12:01.522Z,98666.72
2023-03-02T05:14:31.713Z,98650.50
2023-03-02T05:16:59.731Z,98654.69
2023-03-02T05:19:27.306Z,98661.66
2023-03-02T05:21:54.864Z,98665.13
2023-03-02T05:24:22.204Z,98667.66
2023-03-02T05:26:51.066Z,98664.28
2023-03-02T05:29:18.491Z,98657.50
2023-03-02T05:31:47.613Z,98653.19
2023-03-02T05:34:17.989Z,98667.75
2023-03-02T05:36:46.300Z,98658.31
2023-03-02T05:39:14.081Z,98663.44
2023-03-02T05:41:42.520Z,98660.06
2023-03-02T05:44:12.172Z,98661.78
2023-03-02T05:46:40.410Z,98666.03
2023-03-02T05:49:07.865Z,98662.53
2023-03-02T05:51:35.467Z,98658.94
2023-03-02T05:54:02.786Z,98655.19
2023-03-02T05:56:30.521Z,98668.91
2023-03-02T05:58:57.995Z,98666.00
2023-03-02T06:01:25.614Z,98667.06
2023-03-02T06:03:52.875Z,98670.38
2023-03-02T06:06:20.580Z,98671.31
2023-03-02T06:08:47.841Z,98668.75
2023-03-02T06:11:15.557Z,98671.31
2023-03-02T06:13:42.864Z,98674.63
2023-03-02T06:16:10.670Z,98682.28
2023-03-02T06:18:41.266Z,98687.47
2023-03-02T06:21:09.398Z,98682.88
2023-03-02T06:23:36.711Z,98684.66
2023-03-02T06:26:12.536Z,98680.09
2023-03-02T06:28:52.057Z,98684.88
2023-03-02T06:31:21.286Z,98684.16
2023-03-02T06:33:48.933Z,98683.97
2023-03-02T06:36:17.256Z,98685.84
2023-03-02T06:38:44.649Z,98685.78
2023-03-02T06:41:12.335Z,98684.78
2023-03-02T06:43:39.672Z,98685.59
2023-03-02T06:46:07.572Z,98688.66
2023-03-02T06:48:34.983Z,98682.41
2023-03-02T06:51:02.616Z,98687.91
2023-03-02T06:53:30.182Z,98687.03
2023-03-02T06:55:57.843Z,98694.72
2023-03-02T06:58:25.246Z,98683.13
2023-03-02T07:00:52.938Z,98683.69
2023-03-02T07:03:20.607Z,98684.19
2023-03-02T07:05:49.202Z,98686.59
2023-03-02T07:08:16.608Z,98689.56
2023-03-02T07:10:44.242Z,98685.69
2023-03-02T07:13:11.680Z,98687.00
2023-03-02T07:15:40.216Z,98694.38
2023-03-02T07:18:07.831Z,98694.97
2023-03-02T07:20:35.529Z,98686.91
2023-03-02T07:23:02.899Z,98689.97
2023-03-02T07:25:30.753Z,98693.16
2023-03-02T07:27:58.680Z,98692.78
2023-03-02T07:30:26.378Z,98694.16
2023-03-02T07:32:54.224Z,98683.44
2023-03-02T07:35:21.891Z,98686.50
2023-03-02T07:37:49.184Z,98690.41
2023-03-02T07:40:17.140Z,98691.78
2023-03-02T07:42:44.721Z,98681.06
2023-03-02T07:45:16.939Z,98689.34
2023-03-02T07:47:44.284Z,98680.22
2023-03-02T07:50:12.310Z,98680.09
2023-03-02T07:52:39.805Z,98682.19
2023-03-02T07:55:08.050Z,98676.31
2023-03-02T07:57:35.601Z,98676.00
2023-03-02T08:00:04.991Z,98675.31
2023-03-02T08:02:33.738Z,98656.06
2023-03-02T08:05:01.850Z,98659.03
2023-03-02T08:07:29.265Z,98656.41
2023-03-02T08:09:58.097Z,98658.31
2023-03-02T08:12:25.388Z,98659.38
2023-03-02T08:14:53.032Z,98652.28
2023-03-02T08:17:20.368Z,98658.72
2023-03-02T08:19:48.497Z,98660.75
2023-03-02T08:22:15.882Z,98657.94
2023-03-02T08:24:43.713Z,98663.16
2023-03-02T08:27:15.723Z,98671.75
2023-03-02T08:29:43.343Z,98668.72
2023-03-02T08:32:10.840Z,98663.28
2023-03-02T08:34:38.644Z,98664.19
2023-03-02T08:37:06.277Z,98665.56
2023-03-02T08:39:34.056Z,98662.38
2023-03-02T08:42:01.411Z,98669.59
2023-03-02T08:44:29.110Z,98670.44
2023-03-02T08:46:56.420Z,98668.09
2023-03-02T08:49:24.127Z,98663.09
2023-03-02T08:51:53.778Z,98658.03
2023-03-02T08:54:22.455Z,98656.78
2023-03-02T08:56:50.315Z,98659.22
2023-03-02T08:59:18.465Z,98654.44
2023-03-02T09:01:45.963Z,98653.78
2023-03-02T09:04:13.707Z,98660.75
2023-03-02T09:06:44.206Z,98645.47
2023-03-02T09:09:14.753Z,98653.47
2023-03-02T09:11:43.687Z,98657.63
2023-03-02T09:14:11.445Z,98655.97
2023-03-02T09:16:38.997Z,98652.06
2023-03-02T09:19:07.025Z,98648.19
2023-03-02T09:21:34.857Z,98655.72
2023-03-02T09:24:02.848Z,98656.94
2023-03-02T09:26:30.296Z,98652.97
2023-03-02T09:28:58.157Z,98648.03
2023-03-02T09:31:25.564Z,98643.97
2023-03-02T09:33:53.380Z,98651.06
2023-03-02T09:36:25.012Z,98644.06
2023-03-02T09:38:54.102Z,98642.19
2023-03-02T09:41:21.399Z,98644.81
2023-03-02T09:44:34.945Z,98638.28
2023-03-02T09:47:35.890Z,98644.25
2023-03-02T09:50:33.956Z,98634.25
2023-03-02T09:53:30.878Z,98645.41
2023-03-02T09:56:00.533Z,98639.28
2023-03-02T09:58:36.333Z,98636.56
2023-03-02T10:01:16.491Z,98636.56
2023-03-02T10:04:26.648Z,98625.03
2023-03-02T10:07:11.932Z,98628.88
2023-03-02T10:09:40.939Z,98626.00
2023-03-02T10:12:33.769Z,98623.41
2023-03-02T10:15:38.878Z,98628.72
2023-03-02T10:19:05.740Z,98613.03
2023-03-02T10:21:44.455Z,98620.88
2023-03-02T10:24:36.470Z,98611.38
2023-03-02T10:27:27.032Z,98607.53
2023-03-02T10:30:16.763Z,98602.81
2023-03-02T10:32:49.648Z,98603.44
2023-03-02T10:35:25.155Z,98602.84
2023-03-02T10:38:02.394Z,98600.44
2023-03-02T10:40:50.553Z,98594.28
2023-03-02T10:43:35.922Z,98588.56
2023-03-02T10:46:10.516Z,98583.31
2023-03-02T10:49:01.267Z,98580.53
2023-03-02T10:51:34.504Z,98580.75
2023-03-02T10:54:13.546Z,98573.41
2023-03-02T10:56:53.187Z,98560.97
2023-03-02T10:59:27.239Z,98563.84
2023-03-02T11:02:25.494Z,98553.06
2023-03-02T11:05:32.021Z,98540.72
2023-03-02T11:08:11.726Z,98556.06
2023-03-02T11:10:51.697Z,98549.00
2023-03-02T11:13:40.050Z,98557.59
2023-03-02T11:16:19.640Z,98536.88
2023-03-02T11:19:03.598Z,98533.25
2023-03-02T11:22:03.074Z,98536.22
2023-03-02T11:24:49.184Z,98525.72
2023-03-02T11:27:27.999Z,98532.50
2023-03-02T11:30:16.155Z,98519.28
2023-03-02T11:33:13.306Z,98520.22
2023-03-02T11:36:02.756Z,98512.78
2023-03-02T11:38:41.771Z,98513.41
2023-03-02T11:41:33.989Z,98509.72
2023-03-02T11:44:13.899Z,98506.66
2023-03-02T11:46:47.120Z,98496.31
2023-03-02T11:49:40.893Z,98498.22
2023-03-02T11:52:23.843Z,98495.00
2023-03-02T11:55:17.015Z,98496.28
2023-03-02T11:57:53.367Z,98485.81
2023-03-02T12:00:42.714Z,98484.84
2023-03-02T12:03:20.534Z,98488.75
2023-03-02T12:06:23.204Z,98482.13
2023-03-02T12:09:14.328Z,98479.09
2023-03-02T12:11:46.584Z,98475.94
2023-03-02T12:14:39.120Z,98474.34
2023-03-02T12:17:34.129Z,98468.38
2023-03-02T12:20:24.247Z,98471.50
2023-03-02T12:22:51.647Z,98453.09
2023-03-02T12:25:19.174Z,98453.88
2023-03-02T12:27:53.339Z,98456.03
2023-03-02T12:30:26.878Z,98444.94
2023-03-02T12:33:21.514Z,98442.75
2023-03-02T12:36:13.122Z,98438.44
2023-03-02T12:38:48.088Z,98440.53
2023-03-02T12:41:42.532Z,98433.00
2023-03-02T12:44:25.856Z,98438.31
2023-03-02T12:46:54.769Z,98430.69
2023-03-02T12:49:42.848Z,98428.19
2023-03-02T12:52:36.610Z,98422.09
2023-03-02T12:55:19.311Z,98421.28
2023-03-02T12:57:53.850Z,98409.69
2023-03-02T13:00:31.121Z,98406.00
2023-03-02T13:03:07.310Z,98410.41
2023-03-02T13:05:36.448Z,98405.88
2023-03-02T13:08:18.954Z,98401.97
2023-03-02T13:11:05.491Z,98388.59
2023-03-02T13:13:33.074Z,98387.75
2023-03-02T13:16:05.492Z,98377.97
2023-03-02T13:18:39.760Z,98383.13
2023-03-02T13:21:13.113Z,98380.44
2023-03-02T13:23:49.387Z,98369.97
2023-03-02T13:26:32.240Z,98377.22
2023-03-02T13:29:23.231Z,98369.38
2023-03-02T13:31:51.232Z,98363.16
2023-03-02T13:34:29.192Z,98359.44
2023-03-02T13:36:57.201Z,98356.75
2023-03-02T13:39:31.800Z,98367.44
2023-03-02T13:42:04.804Z,98352.53
2023-03-02T13:44:35.555Z,98345.50
2023-03-02T13:47:04.533Z,98335.25
2023-03-02T13:49:35.908Z,98332.38
2023-03-02T13:52:28.948Z,98332.59
2023-03-02T13:54:56.665Z,98324.84
2023-03-02T13:57:32.967Z,98324.47
2023-03-02T14:00:00.774Z,98327.19
2023-03-02T14:02:30.868Z,98320.53
2023-03-02T14:04:58.743Z,98315.34
2023-03-02T14:07:26.227Z,98309.03
2023-03-02T14:09:55.451Z,98306.47
2023-03-02T14:12:33.085Z,98295.75
2023-03-02T14:15:04.226Z,98305.06
2023-03-02T14:17:31.889Z,98303.22
2023-03-02T14:19:59.651Z,98299.63
2023-03-02T14:22:29.734Z,98289.91
2023-03-02T14:24:57.484Z,98291.94
2023-03-02T14:27:30.120Z,98284.53
2023-03-02T14:29:58.483Z,98284.34
2023-03-02T14:32:25.871Z,98278.84
2023-03-02T14:34:53.689Z,98279.84
2023-03-02T14:37:27.846Z,98281.13
2023-03-02T14:39:55.769Z,98274.41
2023-03-02T14:42:24.272Z,98270.34
2023-03-02T14:44:52.549Z,98271.78
2023-03-02T14:47:21.792Z,98267.97
2023-03-02T14:49:49.644Z,98273.91
2023-03-02T14:52:46.127Z,98270.03
2023-03-02T14:55:26.524Z,98272.78
2023-03-02T14:58:03.484Z,98262.19
2023-03-02T15:00:31.374Z,98265.81
2023-03-02T15:02:59.732Z,98253.97
2023-03-02T15:05:27.575Z,98252.09
2023-03-02T15:07:58.744Z,98250.72
2023-03-02T15:10:26.836Z,98251.06
2023-03-02T15:12:54.158Z,98248.06
2023-03-02T15:15:22.443Z,98246.75
2023-03-02T15:17:49.719Z,98246.59
2023-03-02T15:20:17.569Z,98253.25
2023-03-02T15:22:45.022Z,98250.81
2023-03-02T15:25:12.641Z,98251.13
2023-03-02T15:27:41.708Z,98252.41
2023-03-02T15:30:10.439Z,98254.97
2023-03-02T15:32:38.197Z,98256.81
2023-03-02T15:35:06.717Z,98257.75
2023-03-02T15:37:34.360Z,98254.72
2023-03-02T15:40:02.068Z,98256.34
2023-03-02T15:42:29.475Z,98259.97
2023-03-02T15:44:57.250Z,98266.53
2023-03-02T15:47:25.235Z,98257.53
2023-03-02T15:49:52.964Z,98263.00
2023-03-02T15:52:21.045Z,98254.19
2023-03-02T15:54:48.896Z,98265.75
2023-03-02T15:57:17.634Z,98273.09
2023-03-02T15:59:46.343Z,98259.13
2023-03-02T16:02:15.210Z,98257.13
2023-03-02T16:04:42.871Z,98266.81
2023-03-02T16:07:10.208Z,98258.91
2023-03-02T16:09:37.852Z,98263.09
2023-03-02T16:12:05.488Z,98262.16
2023-03-02T16:14:34.462Z,98268.59
2023-03-02T16:17:01.975Z,98261.91
2023-03-02T16:19:29.693Z,98266.56
2023-03-02T16:21:57.064Z,98265.41
2023-03-02T16:24:25.075Z,98268.09
2023-03-02T16:26:53.721Z,98275.78
2023-03-02T16:29:22.824Z,98268.78
2023-03-02T16:31:50.369Z,98275.72
2023-03-02T16:34:18.158Z,98279.56
2023-03-02T16:36:46.007Z,98271.63
2023-03-02T16:39:14.916Z,98280.84
2023-03-02T16:41:46.360Z,98282.28
2023-03-02T16:44:14.801Z,98279.22
2023-03-02T16:46:43.773Z,98283.34
2023-03-02T16:49:14.168Z,98281.66
2023-03-02T16:51:43.160Z,98281.84
2023-03-02T16:54:15.840Z,98285.09
2023-03-02T16:56:45.440Z,98282.09
2023-03-02T16:59:13.374Z,98291.53
2023-03-02T17:01:40.988Z,98294.06
2023-03-02T17:04:09.161Z,98299.56
2023-03-02T17:06:36.666Z,98301.22
2023-03-02T17:09:04.930Z,98306.88
2023-03-02T17:11:32.292Z,98315.59
2023-03-02T17:14:00.010Z,98312.44
2023-03-02T17:16:27.439Z,98307.81
2023-03-02T17:18:55.347Z,98316.22
2023-03-02T17:21:24.394Z,98314.81
2023-03-02T17:23:52.284Z,98316.56
2023-03-02T17:26:20.251Z,98317.50
2023-03-02T17:28:48.032Z,98317.88
2023-03-02T17:31:15.412Z,98319.00
2023-03-02T17:33:43.254Z,98312.38
2023-03-02T17:36:12.376Z,98316.09
2023-03-02T17:38:40.581Z,98321.88
2023-03-02T17:41:10.935Z,98316.03
2023-03-02T17:43:41.455Z,98324.06
2023-03-02T17:46:15.745Z,98320.53
2023-03-02T17:48:43.998Z,98320.91
2023-03-02T17:51:11.964Z,98327.41
2023-03-02T17:53:39.994Z,98326.31
2023-03-02T17:56:09.453Z,98325.84
2023-03-02T17:58:44.611Z,98328.53
2023-03-02T18:01:16.014Z,98336.38
2023-03-02T18:03:45.460Z,98340.06
2023-03-02T18:06:13.871Z,98333.28
2023-03-02T18:08:41.788Z,98333.53
2023-03-02T18:11:09.355Z,98338.50
2023-03-02T18:13:37.004Z,98333.69
2023-03-02T18:16:04.627Z,98331.19
2023-03-02T18:18:32.752Z,98329.78
2023-03-02T18:21:00.924Z,98327.34
2023-03-02T18:23:29.822Z,98325.91
2023-03-02T18:25:57.948Z,98328.69
2023-03-02T18:28:26.120Z,98326.06
2023-03-02T18:30:53.680Z,98327.53
2023-03-02T18:33:21.444Z,98327.00
2023-03-02T18:35:48.950Z,98334.06
2023-03-02T18:38:18.186Z,98335.09
2023-03-02T18:40:45.818Z,98329.25
2023-03-02T18:43:13.791Z,98329.72
2023-03-02T18:45:41.593Z,98331.63
2023-03-02T18:48:09.502Z,98338.34
2023-03-02T18:50:37.260Z,98332.03
2023-03-02T18:53:05.047Z,98340.41
2023-03-02T18:55:32.531Z,98344.06
2023-03-02T18:58:00.363Z,98338.03
2023-03-02T19:00:28.306Z,98346.09
2023-03-02T19:02:57.328Z,98348.56
2023-03-02T19:05:26.957Z,98349.28
2023-03-02T19:07:54.986Z,98352.47
2023-03-02T19:10:22.529Z,98360.25
2023-03-02T19:12:50.496Z,98349.94
2023-03-02T19:15:18.109Z,98359.06
2023-03-02T19:17:47.059Z,98360.72
2023-03-02T19:20:17.073Z,98355.47
2023-03-02T19:22:47.431Z,98355.06
2023-03-02T19:25:14.726Z,98356.53
2023-03-02T19:27:43.336Z,98351.53
2023-03-02T19:30:19.557Z,98354.38
2023-03-02T19:32:47.339Z,98357.25
2023-03-02T19:35:20.155Z,98356.91
2023-03-02T19:37:48.232Z,98354.72
2023-03-02T19:40:19.634Z,98356.13
2023-03-02T19:42:48.209Z,98355.38
2023-03-02T19:45:23.816Z,98352.47
2023-03-02T19:47:51.653Z,98348.75
2023-03-02T19:50:21.778Z,98347.25
2023-03-02T19:52:52.559Z,98349.44
2023-03-02T19:55:20.732Z,98347.59
2023-03-02T19:57:56.545Z,98362.00
2023-03-02T20:00:24.762Z,98356.00
2023-03-02T20:02:52.650Z,98351.88
2023-03-02T20:05:20.298Z,98350.16
2023-03-02T20:07:48.112Z,98363.34
2023-03-02T20:10:37.733Z,98364.13
2023-03-02T20:13:07.299Z,98359.78
2023-03-02T20:15:39.924Z,98352.31
2023-03-02T20:18:11.022Z,98359.47
2023-03-02T20:20:38.596Z,98360.56
2023-03-02T20:23:06.347Z,98352.19
2023-03-02T20:25:34.665Z,98350.59
2023-03-02T20:28:06.536Z,98348.16
2023-03-02T20:30:40.326Z,98350.94
2023-03-02T20:33:09.435Z,98343.19
2023-03-02T20:35:41.281Z,98352.00
2023-03-02T20:38:15.637Z,98342.56
2023-03-02T20:40:43.895Z,98347.19
2023-03-02T20:43:11.986Z,98348.66
2023-03-02T20:45:40.391Z,98349.97
2023-03-02T20:48:08.249Z,98353.66
2023-03-02T20:50:38.014Z,98357.78
2023-03-02T20:53:07.707Z,98361.69
2023-03-02T20:55:35.721Z,98353.81
2023-03-02T20:58:05.520Z,98353.81
2023-03-02T21:00:36.377Z,98348.59
2023-03-02T21:03:05.578Z,98341.97
2023-03-02T21:05:37.110Z,98345.63
2023-03-02T21:08:05.179Z,98345.00
2023-03-02T21:10:37.762Z,98337.13
2023-03-02T21:13:07.830Z,98340.66
2023-03-02T21:15:36.177Z,98340.59
2023-03-02T21:18:04.482Z,98333.44
2023-03-02T21:20:35.894Z,98337.78
2023-03-02T21:23:04.561Z,98337.00
2023-03-02T21:25:32.339Z,98333.59
2023-03-02T21:28:00.137Z,98327.22
2023-03-02T21:30:34.075Z,98336.88
2023-03-02T21:33:02.575Z,98323.25
2023-03-02T21:35:30.840Z,98327.38
2023-03-02T21:38:04.253Z,98320.00
2023-03-02T21:40:40.781Z,98319.91
2023-03-02T21:43:08.660Z,98310.50
2023-03-02T21:45:37.362Z,98309.78
2023-03-02T21:48:06.355Z,98315.47
2023-03-02T21:50:38.095Z,98311.38
2023-03-02T21:53:06.831Z,98314.78
2023-03-02T21:55:34.987Z,98316.19
2023-03-02T21:58:04.787Z,98308.94
2023-03-02T22:00:38.761Z,98314.69
2023-03-02T22:03:07.799Z,98312.66
2023-03-02T22:05:35.749Z,98303.75
2023-03-02T22:08:03.640Z,98309.50
2023-03-02T22:10:40.698Z,98309.84
2023-03-02T22:13:37.887Z,98312.44
2023-03-02T22:16:20.385Z,98305.34
2023-03-02T22:18:57.895Z,98299.47
2023-03-02T22:21:28.864Z,98306.31
2023-03-02T22:24:33.724Z,98304.13
2023-03-02T22:27:24.699Z,98300.38
2023-03-02T22:29:57.753Z,98296.72
2023-03-02T22:32:37.279Z,98293.13
2023-03-02T22:35:27.706Z,98295.16
2023-03-02T22:38:16.629Z,98287.03
2023-03-02T22:40:44.623Z,98297.47
2023-03-02T22:43:12.069Z,98300.19
2023-03-02T22:45:41.719Z,98295.91
2023-03-02T22:48:18.096Z,98298.38
2023-03-02T22:50:49.276Z,98295.69
2023-03-02T22:53:27.026Z,98291.41
2023-03-02T22:56:01.961Z,98291.59
2023-03-02T22:58:44.112Z,98288.97
2023-03-02T23:01:18.991Z,98287.22
2023-03-02T23:03:49.887Z,98287.28
2023-03-02T23:06:20.741Z,98283.09
2023-03-02T23:08:48.181Z,98278.84
2023-03-02T23:11:23.841Z,98279.69
2023-03-02T23:13:53.009Z,98282.22
2023-03-02T23:16:27.672Z,98273.56
2023-03-02T23:18:59.434Z,98270.91
2023-03-02T23:21:44.614Z,98258.09
2023-03-02T23:24:12.493Z,98264.97
2023-03-02T23:26:40.341Z,98261.56
2023-03-02T23:29:07.759Z,98248.69
2023-03-02T23:31:35.393Z,98246.22
2023-03-02T23:34:02.751Z,98250.41
2023-03-02T23:36:32.079Z,98240.09
2023-03-02T23:38:59.587Z,98249.50
2023-03-02T23:41:27.262Z,98243.47
2023-03-02T23:43:54.657Z,98245.31
2023-03-02T23:46:22.453Z,98253.06
2023-03-02T23:48:49.906Z,98243.69
2023-03-02T23:51:18.500Z,98251.38
2023-03-02T23:53:45.938Z,98249.91
2023-03-02T23:56:13.625Z,98254.22
2023-03-02T23:58:41.192Z,98247.53
